sensor_id;sensor_type;location;lat;lon;timestamp;P1;durP1;ratioP1;P2;durP2;ratioP2
21181;SDS011;10749;46.296;7.524;2022-07-22T00:00:50;7.78;;;6.97;;
21181;SDS011;10749;46.296;7.524;2022-07-22T00:03:16;9.07;;;6.30;;
21181;SDS011;10749;46.296;7.524;2022-07-22T00:05:41;8.38;;;6.68;;
21181;SDS011;10749;46.296;7.524;2022-07-22T00:08:07;8.90;;;6.60;;
21181;SDS011;10749;46.296;7.524;2022-07-22T00:10:32;10.65;;;6.80;;
21181;SDS011;10749;46.296;7.524;2022-07-22T00:12:57;9.75;;;6.88;;
21181;SDS011;10749;46.296;7.524;2022-07-22T00:15:23;7.10;;;6.40;;
21181;SDS011;10749;46.296;7.524;2022-07-22T00:17:48;9.45;;;6.00;;
21181;SDS011;10749;46.296;7.524;2022-07-22T00:20:13;7.78;;;6.97;;
21181;SDS011;10749;46.296;7.524;2022-07-22T00:22:39;8.93;;;6.90;;
21181;SDS011;10749;46.296;7.524;2022-07-22T00:25:04;7.95;;;6.80;;
21181;SDS011;10749;46.296;7.524;2022-07-22T00:27:30;7.20;;;6.50;;
21181;SDS011;10749;46.296;7.524;2022-07-22T00:29:55;7.28;;;6.45;;
21181;SDS011;10749;46.296;7.524;2022-07-22T00:32:21;9.52;;;6.68;;
21181;SDS011;10749;46.296;7.524;2022-07-22T00:34:46;11.15;;;7.15;;
21181;SDS011;10749;46.296;7.524;2022-07-22T00:37:11;7.60;;;6.05;;
21181;SDS011;10749;46.296;7.524;2022-07-22T00:39:37;8.55;;;6.72;;
21181;SDS011;10749;46.296;7.524;2022-07-22T00:42:02;8.50;;;7.30;;
21181;SDS011;10749;46.296;7.524;2022-07-22T00:44:28;7.25;;;6.65;;
21181;SDS011;10749;46.296;7.524;2022-07-22T00:46:53;8.00;;;6.35;;
21181;SDS011;10749;46.296;7.524;2022-07-22T00:49:18;7.60;;;6.90;;
21181;SDS011;10749;46.296;7.524;2022-07-22T00:51:44;7.57;;;6.63;;
21181;SDS011;10749;46.296;7.524;2022-07-22T00:54:11;7.20;;;6.50;;
21181;SDS011;10749;46.296;7.524;2022-07-22T00:56:36;8.18;;;6.97;;
21181;SDS011;10749;46.296;7.524;2022-07-22T00:59:03;9.63;;;6.82;;
21181;SDS011;10749;46.296;7.524;2022-07-22T01:01:32;8.38;;;6.88;;
21181;SDS011;10749;46.296;7.524;2022-07-22T01:03:58;8.25;;;7.03;;
21181;SDS011;10749;46.296;7.524;2022-07-22T01:06:24;7.85;;;7.03;;
21181;SDS011;10749;46.296;7.524;2022-07-22T01:08:50;7.72;;;6.75;;
21181;SDS011;10749;46.296;7.524;2022-07-22T01:11:19;7.75;;;7.05;;
21181;SDS011;10749;46.296;7.524;2022-07-22T01:13:45;7.30;;;6.68;;
21181;SDS011;10749;46.296;7.524;2022-07-22T01:16:12;7.88;;;7.00;;
21181;SDS011;10749;46.296;7.524;2022-07-22T01:18:39;7.45;;;6.60;;
21181;SDS011;10749;46.296;7.524;2022-07-22T01:21:05;9.25;;;7.15;;
21181;SDS011;10749;46.296;7.524;2022-07-22T01:23:32;7.72;;;6.95;;
21181;SDS011;10749;46.296;7.524;2022-07-22T01:25:57;8.75;;;6.88;;
21181;SDS011;10749;46.296;7.524;2022-07-22T01:28:23;8.13;;;7.20;;
21181;SDS011;10749;46.296;7.524;2022-07-22T01:30:48;10.20;;;7.18;;
21181;SDS011;10749;46.296;7.524;2022-07-22T01:33:15;9.80;;;6.95;;
21181;SDS011;10749;46.296;7.524;2022-07-22T01:35:41;8.95;;;7.28;;
21181;SDS011;10749;46.296;7.524;2022-07-22T01:38:06;7.85;;;6.97;;
21181;SDS011;10749;46.296;7.524;2022-07-22T01:40:32;7.72;;;6.88;;
21181;SDS011;10749;46.296;7.524;2022-07-22T01:42:57;8.60;;;7.05;;
21181;SDS011;10749;46.296;7.524;2022-07-22T01:45:23;8.25;;;7.32;;
21181;SDS011;10749;46.296;7.524;2022-07-22T01:47:48;8.57;;;7.15;;
21181;SDS011;10749;46.296;7.524;2022-07-22T01:50:13;9.10;;;7.05;;
21181;SDS011;10749;46.296;7.524;2022-07-22T01:52:39;8.10;;;7.30;;
21181;SDS011;10749;46.296;7.524;2022-07-22T01:55:05;8.15;;;7.25;;
21181;SDS011;10749;46.296;7.524;2022-07-22T01:57:31;8.57;;;6.97;;
21181;SDS011;10749;46.296;7.524;2022-07-22T01:59:56;8.63;;;7.47;;
21181;SDS011;10749;46.296;7.524;2022-07-22T02:02:22;9.05;;;7.32;;
21181;SDS011;10749;46.296;7.524;2022-07-22T02:04:47;9.90;;;7.53;;
21181;SDS011;10749;46.296;7.524;2022-07-22T02:07:12;10.57;;;7.88;;
21181;SDS011;10749;46.296;7.524;2022-07-22T02:09:37;9.95;;;7.75;;
21181;SDS011;10749;46.296;7.524;2022-07-22T02:12:03;9.52;;;7.65;;
21181;SDS011;10749;46.296;7.524;2022-07-22T02:14:28;7.68;;;6.88;;
21181;SDS011;10749;46.296;7.524;2022-07-22T02:16:53;9.07;;;7.30;;
21181;SDS011;10749;46.296;7.524;2022-07-22T02:19:19;8.13;;;7.35;;
21181;SDS011;10749;46.296;7.524;2022-07-22T02:21:44;8.25;;;7.03;;
21181;SDS011;10749;46.296;7.524;2022-07-22T02:24:09;9.25;;;7.78;;
21181;SDS011;10749;46.296;7.524;2022-07-22T02:26:35;9.82;;;8.10;;
21181;SDS011;10749;46.296;7.524;2022-07-22T02:29:00;10.10;;;8.10;;
21181;SDS011;10749;46.296;7.524;2022-07-22T02:31:26;10.55;;;8.30;;
21181;SDS011;10749;46.296;7.524;2022-07-22T02:33:51;9.13;;;8.23;;
21181;SDS011;10749;46.296;7.524;2022-07-22T02:36:17;9.30;;;8.32;;
21181;SDS011;10749;46.296;7.524;2022-07-22T02:38:43;10.48;;;8.85;;
21181;SDS011;10749;46.296;7.524;2022-07-22T02:41:08;10.68;;;8.77;;
21181;SDS011;10749;46.296;7.524;2022-07-22T02:43:34;8.93;;;7.97;;
21181;SDS011;10749;46.296;7.524;2022-07-22T02:45:59;9.13;;;7.72;;
21181;SDS011;10749;46.296;7.524;2022-07-22T02:48:24;9.65;;;7.53;;
21181;SDS011;10749;46.296;7.524;2022-07-22T02:50:50;10.68;;;8.30;;
21181;SDS011;10749;46.296;7.524;2022-07-22T02:53:15;8.60;;;7.70;;
21181;SDS011;10749;46.296;7.524;2022-07-22T02:55:40;9.27;;;8.38;;
21181;SDS011;10749;46.296;7.524;2022-07-22T02:58:06;10.50;;;8.30;;
21181;SDS011;10749;46.296;7.524;2022-07-22T03:00:33;9.18;;;8.00;;
21181;SDS011;10749;46.296;7.524;2022-07-22T03:02:59;13.00;;;8.10;;
21181;SDS011;10749;46.296;7.524;2022-07-22T03:05:25;11.32;;;8.23;;
21181;SDS011;10749;46.296;7.524;2022-07-22T03:07:50;10.02;;;8.43;;
21181;SDS011;10749;46.296;7.524;2022-07-22T03:10:15;9.50;;;7.97;;
21181;SDS011;10749;46.296;7.524;2022-07-22T03:12:41;10.38;;;8.18;;
21181;SDS011;10749;46.296;7.524;2022-07-22T03:15:06;9.45;;;8.55;;
21181;SDS011;10749;46.296;7.524;2022-07-22T03:17:35;9.05;;;8.07;;
21181;SDS011;10749;46.296;7.524;2022-07-22T03:20:02;11.90;;;7.97;;
21181;SDS011;10749;46.296;7.524;2022-07-22T03:22:32;11.70;;;9.02;;
21181;SDS011;10749;46.296;7.524;2022-07-22T03:24:57;9.93;;;7.97;;
21181;SDS011;10749;46.296;7.524;2022-07-22T03:27:23;12.18;;;8.45;;
21181;SDS011;10749;46.296;7.524;2022-07-22T03:29:48;9.25;;;8.25;;
21181;SDS011;10749;46.296;7.524;2022-07-22T03:32:13;9.48;;;8.18;;
21181;SDS011;10749;46.296;7.524;2022-07-22T03:34:39;10.63;;;8.45;;
21181;SDS011;10749;46.296;7.524;2022-07-22T03:37:04;14.15;;;9.10;;
21181;SDS011;10749;46.296;7.524;2022-07-22T03:39:30;10.98;;;8.07;;
21181;SDS011;10749;46.296;7.524;2022-07-22T03:41:55;10.57;;;8.70;;
21181;SDS011;10749;46.296;7.524;2022-07-22T03:44:20;8.88;;;8.00;;
21181;SDS011;10749;46.296;7.524;2022-07-22T03:46:46;11.20;;;8.18;;
21181;SDS011;10749;46.296;7.524;2022-07-22T03:49:11;9.82;;;7.88;;
21181;SDS011;10749;46.296;7.524;2022-07-22T03:51:36;9.15;;;8.25;;
21181;SDS011;10749;46.296;7.524;2022-07-22T03:54:01;10.10;;;8.50;;
21181;SDS011;10749;46.296;7.524;2022-07-22T03:56:27;10.02;;;8.55;;
21181;SDS011;10749;46.296;7.524;2022-07-22T03:58:52;9.63;;;7.63;;
21181;SDS011;10749;46.296;7.524;2022-07-22T04:01:17;10.13;;;8.07;;
21181;SDS011;10749;46.296;7.524;2022-07-22T04:03:43;9.68;;;8.30;;
21181;SDS011;10749;46.296;7.524;2022-07-22T04:06:08;9.23;;;7.95;;
21181;SDS011;10749;46.296;7.524;2022-07-22T04:08:33;10.05;;;8.35;;
21181;SDS011;10749;46.296;7.524;2022-07-22T04:10:59;10.68;;;8.45;;
21181;SDS011;10749;46.296;7.524;2022-07-22T04:13:24;8.88;;;7.97;;
21181;SDS011;10749;46.296;7.524;2022-07-22T04:15:50;10.80;;;8.65;;
21181;SDS011;10749;46.296;7.524;2022-07-22T04:18:15;10.38;;;8.38;;
21181;SDS011;10749;46.296;7.524;2022-07-22T04:20:42;12.05;;;8.95;;
21181;SDS011;10749;46.296;7.524;2022-07-22T04:23:07;11.48;;;8.75;;
21181;SDS011;10749;46.296;7.524;2022-07-22T04:25:33;11.80;;;9.00;;
21181;SDS011;10749;46.296;7.524;2022-07-22T04:27:58;9.15;;;8.27;;
21181;SDS011;10749;46.296;7.524;2022-07-22T04:30:23;10.73;;;8.88;;
21181;SDS011;10749;46.296;7.524;2022-07-22T04:32:49;10.80;;;8.32;;
21181;SDS011;10749;46.296;7.524;2022-07-22T04:35:14;9.13;;;8.13;;
21181;SDS011;10749;46.296;7.524;2022-07-22T04:37:39;10.00;;;8.68;;
21181;SDS011;10749;46.296;7.524;2022-07-22T04:40:05;9.23;;;8.30;;
21181;SDS011;10749;46.296;7.524;2022-07-22T04:42:31;9.50;;;8.32;;
21181;SDS011;10749;46.296;7.524;2022-07-22T04:44:56;10.18;;;8.68;;
21181;SDS011;10749;46.296;7.524;2022-07-22T04:47:21;14.27;;;9.18;;
21181;SDS011;10749;46.296;7.524;2022-07-22T04:49:47;13.90;;;8.65;;
21181;SDS011;10749;46.296;7.524;2022-07-22T04:52:12;19.73;;;10.07;;
21181;SDS011;10749;46.296;7.524;2022-07-22T04:54:37;12.80;;;8.80;;
21181;SDS011;10749;46.296;7.524;2022-07-22T04:57:03;11.02;;;8.60;;
21181;SDS011;10749;46.296;7.524;2022-07-22T04:59:28;15.88;;;9.43;;
21181;SDS011;10749;46.296;7.524;2022-07-22T05:01:53;12.48;;;9.52;;
21181;SDS011;10749;46.296;7.524;2022-07-22T05:04:19;14.48;;;9.25;;
21181;SDS011;10749;46.296;7.524;2022-07-22T05:06:44;11.45;;;9.25;;
21181;SDS011;10749;46.296;7.524;2022-07-22T05:09:09;15.23;;;9.50;;
21181;SDS011;10749;46.296;7.524;2022-07-22T05:11:35;11.00;;;9.27;;
21181;SDS011;10749;46.296;7.524;2022-07-22T05:14:00;12.32;;;10.02;;
21181;SDS011;10749;46.296;7.524;2022-07-22T05:16:26;11.73;;;9.38;;
21181;SDS011;10749;46.296;7.524;2022-07-22T05:18:51;14.30;;;8.90;;
21181;SDS011;10749;46.296;7.524;2022-07-22T05:21:16;10.30;;;8.90;;
21181;SDS011;10749;46.296;7.524;2022-07-22T05:23:42;10.63;;;9.30;;
21181;SDS011;10749;46.296;7.524;2022-07-22T05:26:08;12.32;;;9.35;;
21181;SDS011;10749;46.296;7.524;2022-07-22T05:28:33;21.25;;;9.60;;
21181;SDS011;10749;46.296;7.524;2022-07-22T05:30:59;9.88;;;8.80;;
21181;SDS011;10749;46.296;7.524;2022-07-22T05:33:24;12.82;;;9.35;;
21181;SDS011;10749;46.296;7.524;2022-07-22T05:35:49;14.27;;;9.40;;
21181;SDS011;10749;46.296;7.524;2022-07-22T05:38:14;11.63;;;8.80;;
21181;SDS011;10749;46.296;7.524;2022-07-22T05:40:40;11.45;;;9.15;;
21181;SDS011;10749;46.296;7.524;2022-07-22T05:43:05;14.23;;;9.55;;
21181;SDS011;10749;46.296;7.524;2022-07-22T05:45:31;10.50;;;9.10;;
21181;SDS011;10749;46.296;7.524;2022-07-22T05:47:56;11.77;;;8.93;;
21181;SDS011;10749;46.296;7.524;2022-07-22T05:50:21;12.20;;;8.90;;
21181;SDS011;10749;46.296;7.524;2022-07-22T05:52:47;10.73;;;8.82;;
21181;SDS011;10749;46.296;7.524;2022-07-22T05:55:12;12.32;;;8.57;;
21181;SDS011;10749;46.296;7.524;2022-07-22T05:57:37;10.05;;;9.00;;
21181;SDS011;10749;46.296;7.524;2022-07-22T06:00:03;11.45;;;9.25;;
21181;SDS011;10749;46.296;7.524;2022-07-22T06:02:29;10.45;;;9.45;;
21181;SDS011;10749;46.296;7.524;2022-07-22T06:04:54;12.68;;;10.02;;
21181;SDS011;10749;46.296;7.524;2022-07-22T06:07:20;11.27;;;9.30;;
21181;SDS011;10749;46.296;7.524;2022-07-22T06:09:45;12.77;;;9.48;;
21181;SDS011;10749;46.296;7.524;2022-07-22T06:12:11;13.00;;;9.73;;
21181;SDS011;10749;46.296;7.524;2022-07-22T06:14:36;11.07;;;9.45;;
21181;SDS011;10749;46.296;7.524;2022-07-22T06:17:02;10.70;;;9.60;;
21181;SDS011;10749;46.296;7.524;2022-07-22T06:19:27;11.88;;;9.38;;
21181;SDS011;10749;46.296;7.524;2022-07-22T06:21:54;14.40;;;9.85;;
21181;SDS011;10749;46.296;7.524;2022-07-22T06:24:20;12.90;;;9.10;;
21181;SDS011;10749;46.296;7.524;2022-07-22T06:26:45;10.73;;;9.38;;
21181;SDS011;10749;46.296;7.524;2022-07-22T06:29:10;12.30;;;10.38;;
21181;SDS011;10749;46.296;7.524;2022-07-22T06:31:36;10.63;;;9.52;;
21181;SDS011;10749;46.296;7.524;2022-07-22T06:34:01;11.10;;;10.00;;
21181;SDS011;10749;46.296;7.524;2022-07-22T06:36:30;11.27;;;9.65;;
21181;SDS011;10749;46.296;7.524;2022-07-22T06:38:56;12.15;;;10.52;;
21181;SDS011;10749;46.296;7.524;2022-07-22T06:41:21;11.18;;;9.82;;
21181;SDS011;10749;46.296;7.524;2022-07-22T06:43:47;11.02;;;9.93;;
21181;SDS011;10749;46.296;7.524;2022-07-22T06:46:12;11.73;;;9.80;;
21181;SDS011;10749;46.296;7.524;2022-07-22T06:48:37;13.93;;;9.43;;
21181;SDS011;10749;46.296;7.524;2022-07-22T06:51:03;12.15;;;9.50;;
21181;SDS011;10749;46.296;7.524;2022-07-22T06:53:28;11.65;;;9.20;;
21181;SDS011;10749;46.296;7.524;2022-07-22T06:55:54;15.00;;;9.88;;
21181;SDS011;10749;46.296;7.524;2022-07-22T06:58:19;12.10;;;9.00;;
21181;SDS011;10749;46.296;7.524;2022-07-22T07:00:44;12.57;;;9.35;;
21181;SDS011;10749;46.296;7.524;2022-07-22T07:03:10;13.07;;;9.88;;
21181;SDS011;10749;46.296;7.524;2022-07-22T07:05:35;10.70;;;9.07;;
21181;SDS011;10749;46.296;7.524;2022-07-22T07:08:01;10.77;;;9.25;;
21181;SDS011;10749;46.296;7.524;2022-07-22T07:10:26;12.02;;;9.00;;
21181;SDS011;10749;46.296;7.524;2022-07-22T07:12:54;10.57;;;9.38;;
21181;SDS011;10749;46.296;7.524;2022-07-22T07:15:21;14.00;;;9.55;;
21181;SDS011;10749;46.296;7.524;2022-07-22T07:17:46;10.57;;;9.20;;
21181;SDS011;10749;46.296;7.524;2022-07-22T07:20:12;10.23;;;9.25;;
21181;SDS011;10749;46.296;7.524;2022-07-22T07:22:37;11.48;;;9.52;;
21181;SDS011;10749;46.296;7.524;2022-07-22T07:25:06;11.10;;;8.98;;
21181;SDS011;10749;46.296;7.524;2022-07-22T07:27:33;10.30;;;9.07;;
21181;SDS011;10749;46.296;7.524;2022-07-22T07:29:59;11.40;;;9.30;;
21181;SDS011;10749;46.296;7.524;2022-07-22T07:32:24;10.55;;;9.20;;
21181;SDS011;10749;46.296;7.524;2022-07-22T07:34:49;10.75;;;9.20;;
21181;SDS011;10749;46.296;7.524;2022-07-22T07:37:15;10.45;;;9.05;;
21181;SDS011;10749;46.296;7.524;2022-07-22T07:39:40;10.13;;;8.85;;
21181;SDS011;10749;46.296;7.524;2022-07-22T07:42:06;10.43;;;9.20;;
21181;SDS011;10749;46.296;7.524;2022-07-22T07:44:31;11.02;;;9.93;;
21181;SDS011;10749;46.296;7.524;2022-07-22T07:46:57;10.75;;;9.63;;
21181;SDS011;10749;46.296;7.524;2022-07-22T07:49:22;11.45;;;9.13;;
21181;SDS011;10749;46.296;7.524;2022-07-22T07:51:48;10.32;;;9.15;;
21181;SDS011;10749;46.296;7.524;2022-07-22T07:54:14;10.98;;;8.85;;
21181;SDS011;10749;46.296;7.524;2022-07-22T07:56:39;10.38;;;9.02;;
21181;SDS011;10749;46.296;7.524;2022-07-22T07:59:04;11.15;;;9.43;;
21181;SDS011;10749;46.296;7.524;2022-07-22T08:01:30;10.93;;;9.82;;
21181;SDS011;10749;46.296;7.524;2022-07-22T08:03:55;12.27;;;9.48;;
21181;SDS011;10749;46.296;7.524;2022-07-22T08:06:21;11.77;;;9.30;;
21181;SDS011;10749;46.296;7.524;2022-07-22T08:08:46;11.90;;;9.18;;
21181;SDS011;10749;46.296;7.524;2022-07-22T08:11:11;12.00;;;9.05;;
21181;SDS011;10749;46.296;7.524;2022-07-22T08:13:37;10.45;;;8.68;;
21181;SDS011;10749;46.296;7.524;2022-07-22T08:16:03;11.15;;;8.52;;
21181;SDS011;10749;46.296;7.524;2022-07-22T08:18:28;11.13;;;8.43;;
21181;SDS011;10749;46.296;7.524;2022-07-22T08:20:55;10.10;;;9.02;;
21181;SDS011;10749;46.296;7.524;2022-07-22T08:23:21;11.70;;;9.20;;
21181;SDS011;10749;46.296;7.524;2022-07-22T08:25:46;10.27;;;9.10;;
21181;SDS011;10749;46.296;7.524;2022-07-22T08:28:12;10.73;;;8.60;;
21181;SDS011;10749;46.296;7.524;2022-07-22T08:30:37;9.18;;;8.27;;
21181;SDS011;10749;46.296;7.524;2022-07-22T08:33:04;10.48;;;8.52;;
21181;SDS011;10749;46.296;7.524;2022-07-22T08:35:29;12.23;;;9.25;;
21181;SDS011;10749;46.296;7.524;2022-07-22T08:37:55;11.63;;;8.68;;
21181;SDS011;10749;46.296;7.524;2022-07-22T08:40:20;10.00;;;8.75;;
21181;SDS011;10749;46.296;7.524;2022-07-22T08:42:46;9.43;;;8.52;;
21181;SDS011;10749;46.296;7.524;2022-07-22T08:45:12;11.23;;;8.82;;
21181;SDS011;10749;46.296;7.524;2022-07-22T08:47:38;10.10;;;8.38;;
21181;SDS011;10749;46.296;7.524;2022-07-22T08:50:04;9.85;;;8.90;;
21181;SDS011;10749;46.296;7.524;2022-07-22T08:52:29;12.25;;;8.80;;
21181;SDS011;10749;46.296;7.524;2022-07-22T08:54:55;10.23;;;8.48;;
21181;SDS011;10749;46.296;7.524;2022-07-22T08:57:20;9.52;;;8.60;;
21181;SDS011;10749;46.296;7.524;2022-07-22T08:59:52;9.57;;;8.57;;
21181;SDS011;10749;46.296;7.524;2022-07-22T09:02:19;10.05;;;9.02;;
21181;SDS011;10749;46.296;7.524;2022-07-22T09:04:54;11.13;;;8.65;;
21181;SDS011;10749;46.296;7.524;2022-07-22T09:07:44;9.70;;;8.75;;
21181;SDS011;10749;46.296;7.524;2022-07-22T09:10:12;10.10;;;8.90;;
21181;SDS011;10749;46.296;7.524;2022-07-22T09:12:56;9.38;;;8.45;;
21181;SDS011;10749;46.296;7.524;2022-07-22T09:15:32;11.38;;;9.40;;
21181;SDS011;10749;46.296;7.524;2022-07-22T09:18:01;10.57;;;9.02;;
21181;SDS011;10749;46.296;7.524;2022-07-22T09:20:27;10.43;;;9.30;;
21181;SDS011;10749;46.296;7.524;2022-07-22T09:22:54;10.60;;;9.55;;
21181;SDS011;10749;46.296;7.524;2022-07-22T09:25:23;11.10;;;10.00;;
21181;SDS011;10749;46.296;7.524;2022-07-22T09:30:31;11.07;;;9.60;;
21181;SDS011;10749;46.296;7.524;2022-07-22T09:32:58;10.27;;;9.27;;
21181;SDS011;10749;46.296;7.524;2022-07-22T09:35:24;11.95;;;8.93;;
21181;SDS011;10749;46.296;7.524;2022-07-22T09:37:54;10.05;;;8.93;;
21181;SDS011;10749;46.296;7.524;2022-07-22T09:40:27;11.43;;;10.30;;
21181;SDS011;10749;46.296;7.524;2022-07-22T09:42:58;13.75;;;10.30;;
21181;SDS011;10749;46.296;7.524;2022-07-22T09:45:25;11.88;;;9.90;;
21181;SDS011;10749;46.296;7.524;2022-07-22T09:47:53;12.40;;;9.77;;
21181;SDS011;10749;46.296;7.524;2022-07-22T09:50:23;11.65;;;9.82;;
21181;SDS011;10749;46.296;7.524;2022-07-22T09:52:51;14.93;;;10.15;;
21181;SDS011;10749;46.296;7.524;2022-07-22T09:55:18;12.35;;;10.40;;
21181;SDS011;10749;46.296;7.524;2022-07-22T09:57:45;10.55;;;9.45;;
21181;SDS011;10749;46.296;7.524;2022-07-22T10:00:12;10.48;;;9.48;;
21181;SDS011;10749;46.296;7.524;2022-07-22T10:02:46;10.27;;;9.20;;
21181;SDS011;10749;46.296;7.524;2022-07-22T10:05:15;10.45;;;9.38;;
21181;SDS011;10749;46.296;7.524;2022-07-22T10:07:45;11.13;;;9.45;;
21181;SDS011;10749;46.296;7.524;2022-07-22T10:10:12;10.70;;;9.23;;
21181;SDS011;10749;46.296;7.524;2022-07-22T10:12:40;9.25;;;8.30;;
21181;SDS011;10749;46.296;7.524;2022-07-22T10:15:06;12.73;;;8.27;;
21181;SDS011;10749;46.296;7.524;2022-07-22T10:17:33;9.60;;;8.65;;
21181;SDS011;10749;46.296;7.524;2022-07-22T10:20:02;8.50;;;7.45;;
21181;SDS011;10749;46.296;7.524;2022-07-22T10:22:44;10.00;;;7.97;;
21181;SDS011;10749;46.296;7.524;2022-07-22T10:25:11;10.73;;;8.48;;
21181;SDS011;10749;46.296;7.524;2022-07-22T10:27:48;8.35;;;7.50;;
21181;SDS011;10749;46.296;7.524;2022-07-22T10:30:19;8.95;;;7.90;;
21181;SDS011;10749;46.296;7.524;2022-07-22T10:35:27;8.88;;;7.97;;
21181;SDS011;10749;46.296;7.524;2022-07-22T10:37:54;9.07;;;7.57;;
21181;SDS011;10749;46.296;7.524;2022-07-22T10:40:22;10.43;;;8.10;;
21181;SDS011;10749;46.296;7.524;2022-07-22T10:48:00;8.63;;;7.30;;
21181;SDS011;10749;46.296;7.524;2022-07-22T10:53:05;9.32;;;7.20;;
21181;SDS011;10749;46.296;7.524;2022-07-22T10:55:56;9.07;;;8.15;;
21181;SDS011;10749;46.296;7.524;2022-07-22T11:01:02;12.50;;;7.50;;
21181;SDS011;10749;46.296;7.524;2022-07-22T11:03:30;9.25;;;8.35;;
21181;SDS011;10749;46.296;7.524;2022-07-22T11:05:57;11.10;;;8.57;;
21181;SDS011;10749;46.296;7.524;2022-07-22T11:08:38;14.43;;;9.68;;
21181;SDS011;10749;46.296;7.524;2022-07-22T11:11:04;8.88;;;8.00;;
21181;SDS011;10749;46.296;7.524;2022-07-22T11:18:57;8.57;;;7.78;;
21181;SDS011;10749;46.296;7.524;2022-07-22T11:21:25;9.00;;;8.13;;
21181;SDS011;10749;46.296;7.524;2022-07-22T11:23:53;9.05;;;8.23;;
21181;SDS011;10749;46.296;7.524;2022-07-22T11:26:41;11.38;;;8.07;;
21181;SDS011;10749;46.296;7.524;2022-07-22T11:29:07;9.55;;;8.15;;
21181;SDS011;10749;46.296;7.524;2022-07-22T11:31:33;9.27;;;7.82;;
21181;SDS011;10749;46.296;7.524;2022-07-22T11:34:07;9.63;;;8.63;;
21181;SDS011;10749;46.296;7.524;2022-07-22T11:36:37;8.75;;;7.95;;
21181;SDS011;10749;46.296;7.524;2022-07-22T11:39:07;8.80;;;7.88;;
21181;SDS011;10749;46.296;7.524;2022-07-22T11:41:33;9.93;;;8.32;;
21181;SDS011;10749;46.296;7.524;2022-07-22T11:43:59;9.68;;;8.30;;
21181;SDS011;10749;46.296;7.524;2022-07-22T11:46:25;11.55;;;8.38;;
21181;SDS011;10749;46.296;7.524;2022-07-22T11:48:52;8.57;;;7.63;;
21181;SDS011;10749;46.296;7.524;2022-07-22T11:51:18;9.20;;;8.30;;
21181;SDS011;10749;46.296;7.524;2022-07-22T11:53:43;9.38;;;8.38;;
21181;SDS011;10749;46.296;7.524;2022-07-22T11:56:10;9.77;;;8.77;;
21181;SDS011;10749;46.296;7.524;2022-07-22T11:58:43;9.70;;;8.75;;
21181;SDS011;10749;46.296;7.524;2022-07-22T12:01:14;9.55;;;8.20;;
21181;SDS011;10749;46.296;7.524;2022-07-22T12:03:44;8.65;;;7.85;;
21181;SDS011;10749;46.296;7.524;2022-07-22T12:06:13;8.63;;;7.82;;
21181;SDS011;10749;46.296;7.524;2022-07-22T12:08:46;9.98;;;8.02;;
21181;SDS011;10749;46.296;7.524;2022-07-22T12:11:14;8.48;;;7.55;;
21181;SDS011;10749;46.296;7.524;2022-07-22T12:13:47;9.07;;;8.27;;
21181;SDS011;10749;46.296;7.524;2022-07-22T12:16:28;9.13;;;8.27;;
21181;SDS011;10749;46.296;7.524;2022-07-22T12:18:58;9.02;;;8.13;;
21181;SDS011;10749;46.296;7.524;2022-07-22T12:21:26;8.95;;;7.82;;
21181;SDS011;10749;46.296;7.524;2022-07-22T12:23:54;8.57;;;7.72;;
21181;SDS011;10749;46.296;7.524;2022-07-22T12:32:04;8.73;;;7.43;;
21181;SDS011;10749;46.296;7.524;2022-07-22T12:37:11;9.73;;;7.68;;
21181;SDS011;10749;46.296;7.524;2022-07-22T12:42:30;8.82;;;7.93;;
21181;SDS011;10749;46.296;7.524;2022-07-22T12:45:01;8.07;;;7.22;;
21181;SDS011;10749;46.296;7.524;2022-07-22T12:47:40;9.40;;;8.07;;
21181;SDS011;10749;46.296;7.524;2022-07-22T12:53:02;8.38;;;7.68;;
21181;SDS011;10749;46.296;7.524;2022-07-22T12:55:36;8.38;;;7.57;;
21181;SDS011;10749;46.296;7.524;2022-07-22T12:58:03;8.52;;;7.65;;
21181;SDS011;10749;46.296;7.524;2022-07-22T13:00:31;8.98;;;8.07;;
21181;SDS011;10749;46.296;7.524;2022-07-22T13:02:58;8.55;;;7.68;;
21181;SDS011;10749;46.296;7.524;2022-07-22T13:05:23;9.93;;;7.75;;
21181;SDS011;10749;46.296;7.524;2022-07-22T13:07:50;8.60;;;7.63;;
21181;SDS011;10749;46.296;7.524;2022-07-22T13:10:18;11.70;;;7.43;;
21181;SDS011;10749;46.296;7.524;2022-07-22T13:12:43;9.70;;;7.53;;
21181;SDS011;10749;46.296;7.524;2022-07-22T13:15:09;8.40;;;7.55;;
21181;SDS011;10749;46.296;7.524;2022-07-22T13:17:35;8.75;;;6.90;;
21181;SDS011;10749;46.296;7.524;2022-07-22T13:20:02;7.95;;;7.15;;
21181;SDS011;10749;46.296;7.524;2022-07-22T13:22:28;7.95;;;7.15;;
21181;SDS011;10749;46.296;7.524;2022-07-22T13:24:54;8.20;;;7.15;;
21181;SDS011;10749;46.296;7.524;2022-07-22T13:27:19;8.43;;;7.72;;
21181;SDS011;10749;46.296;7.524;2022-07-22T13:29:44;8.52;;;6.85;;
21181;SDS011;10749;46.296;7.524;2022-07-22T13:32:10;10.32;;;7.30;;
21181;SDS011;10749;46.296;7.524;2022-07-22T13:34:35;8.30;;;7.50;;
21181;SDS011;10749;46.296;7.524;2022-07-22T13:37:00;8.07;;;7.25;;
21181;SDS011;10749;46.296;7.524;2022-07-22T13:39:26;8.13;;;7.43;;
21181;SDS011;10749;46.296;7.524;2022-07-22T13:41:52;9.20;;;7.25;;
21181;SDS011;10749;46.296;7.524;2022-07-22T13:44:17;8.18;;;6.90;;
21181;SDS011;10749;46.296;7.524;2022-07-22T13:46:42;9.15;;;7.45;;
21181;SDS011;10749;46.296;7.524;2022-07-22T13:49:08;8.55;;;7.60;;
21181;SDS011;10749;46.296;7.524;2022-07-22T13:51:33;8.82;;;7.60;;
21181;SDS011;10749;46.296;7.524;2022-07-22T13:53:58;7.97;;;7.18;;
21181;SDS011;10749;46.296;7.524;2022-07-22T13:56:24;8.32;;;7.03;;
21181;SDS011;10749;46.296;7.524;2022-07-22T13:58:50;8.32;;;7.10;;
21181;SDS011;10749;46.296;7.524;2022-07-22T14:01:16;17.40;;;13.93;;
21181;SDS011;10749;46.296;7.524;2022-07-22T14:03:42;10.65;;;8.85;;
21181;SDS011;10749;46.296;7.524;2022-07-22T14:06:07;11.35;;;9.43;;
21181;SDS011;10749;46.296;7.524;2022-07-22T14:08:34;8.57;;;7.38;;
21181;SDS011;10749;46.296;7.524;2022-07-22T14:10:59;8.38;;;7.57;;
21181;SDS011;10749;46.296;7.524;2022-07-22T14:13:26;11.32;;;8.70;;
21181;SDS011;10749;46.296;7.524;2022-07-22T14:15:51;10.45;;;8.30;;
21181;SDS011;10749;46.296;7.524;2022-07-22T14:18:16;13.18;;;8.80;;
21181;SDS011;10749;46.296;7.524;2022-07-22T14:20:42;11.13;;;8.07;;
21181;SDS011;10749;46.296;7.524;2022-07-22T14:23:07;10.88;;;8.73;;
21181;SDS011;10749;46.296;7.524;2022-07-22T14:25:36;8.40;;;7.60;;
21181;SDS011;10749;46.296;7.524;2022-07-22T14:28:03;7.70;;;7.00;;
21181;SDS011;10749;46.296;7.524;2022-07-22T14:30:29;8.50;;;6.63;;
21181;SDS011;10749;46.296;7.524;2022-07-22T14:32:56;7.00;;;6.32;;
21181;SDS011;10749;46.296;7.524;2022-07-22T14:35:21;6.97;;;6.28;;
21181;SDS011;10749;46.296;7.524;2022-07-22T14:37:47;8.63;;;7.18;;
21181;SDS011;10749;46.296;7.524;2022-07-22T14:40:12;7.53;;;6.78;;
21181;SDS011;10749;46.296;7.524;2022-07-22T14:42:38;7.18;;;6.32;;
21181;SDS011;10749;46.296;7.524;2022-07-22T14:45:04;8.68;;;7.43;;
21181;SDS011;10749;46.296;7.524;2022-07-22T14:47:30;7.32;;;6.40;;
21181;SDS011;10749;46.296;7.524;2022-07-22T14:49:55;7.35;;;6.40;;
21181;SDS011;10749;46.296;7.524;2022-07-22T14:52:21;8.30;;;6.38;;
21181;SDS011;10749;46.296;7.524;2022-07-22T14:54:46;6.97;;;6.25;;
21181;SDS011;10749;46.296;7.524;2022-07-22T14:57:11;6.75;;;6.15;;
21181;SDS011;10749;46.296;7.524;2022-07-22T14:59:37;6.43;;;5.78;;
21181;SDS011;10749;46.296;7.524;2022-07-22T15:02:02;9.15;;;6.00;;
21181;SDS011;10749;46.296;7.524;2022-07-22T15:04:27;6.13;;;5.55;;
21181;SDS011;10749;46.296;7.524;2022-07-22T15:06:53;7.82;;;5.90;;
21181;SDS011;10749;46.296;7.524;2022-07-22T15:09:18;7.40;;;5.93;;
21181;SDS011;10749;46.296;7.524;2022-07-22T15:11:43;6.80;;;5.78;;